createdAt,value
2019-02-11T01:07:59.536Z,0.80
2019-02-11T01:10:28.705Z,0.60
2019-02-11T01:12:57.665Z,0.60
2019-02-11T01:15:27.940Z,0.50
2019-02-11T01:17:57.496Z,0.50
2019-02-11T01:20:26.684Z,0.60
2019-02-11T01:22:55.576Z,0.50
2019-02-11T01:25:24.765Z,0.50
2019-02-11T01:27:53.674Z,0.70
2019-02-11T01:30:22.658Z,0.57
2019-02-11T01:32:51.941Z,0.60
2019-02-11T01:35:21.108Z,0.73
2019-02-11T01:37:50.280Z,0.60
2019-02-11T01:40:19.617Z,0.63
2019-02-11T01:42:48.886Z,0.50
2019-02-11T01:45:17.820Z,0.47
2019-02-11T01:47:46.710Z,0.90
2019-02-11T01:50:15.620Z,0.50
2019-02-11T01:52:44.552Z,0.70
2019-02-11T01:55:13.776Z,0.77
2019-02-11T01:57:42.829Z,0.70
2019-02-11T02:00:12.702Z,0.50
2019-02-11T02:02:41.597Z,0.60
2019-02-11T02:05:10.775Z,0.53
2019-02-11T02:07:40.008Z,1.03
2019-02-11T02:10:10.000Z,0.70
2019-02-11T02:12:38.941Z,0.60
2019-02-11T02:15:07.844Z,0.60
2019-02-11T02:17:37.040Z,0.80
2019-02-11T02:20:06.572Z,0.63
2019-02-11T02:22:35.786Z,0.50
2019-02-11T02:25:05.068Z,0.63
2019-02-11T02:27:34.239Z,0.60
2019-02-11T02:30:03.738Z,0.50
2019-02-11T02:32:33.106Z,0.60
2019-02-11T02:35:02.287Z,0.60
2019-02-11T02:37:31.454Z,0.90
2019-02-11T02:40:01.087Z,0.60
2019-02-11T02:42:30.040Z,1.37
2019-02-11T02:44:59.179Z,0.60
2019-02-11T02:47:28.373Z,0.83
2019-02-11T02:49:57.605Z,0.60
2019-02-11T02:52:26.525Z,0.57
2019-02-11T02:54:55.712Z,0.60
2019-02-11T02:57:24.956Z,0.60
2019-02-11T02:59:54.143Z,0.60
2019-02-11T03:02:23.146Z,0.73
2019-02-11T03:04:52.137Z,0.70
2019-02-11T03:07:21.337Z,1.00
2019-02-11T03:09:50.483Z,0.90
2019-02-11T03:12:19.714Z,0.80
2019-02-11T03:14:48.965Z,0.80
2019-02-11T03:17:17.885Z,0.70
2019-02-11T03:19:47.043Z,0.60
2019-02-11T03:22:15.957Z,1.10
2019-02-11T03:24:45.247Z,1.30
2019-02-11T03:27:14.190Z,1.00
2019-02-11T03:29:43.427Z,1.07
2019-02-11T03:32:12.429Z,0.90
2019-02-11T03:34:41.701Z,0.83
2019-02-11T03:37:10.954Z,1.03
2019-02-11T03:39:40.248Z,0.80
2019-02-11T03:42:09.245Z,1.10
2019-02-11T03:44:38.762Z,1.20
2019-02-11T03:47:07.668Z,1.10
2019-02-11T03:49:36.935Z,0.83
2019-02-11T03:52:05.929Z,1.30
2019-02-11T03:54:34.909Z,0.90
2019-02-11T03:57:04.166Z,1.10
2019-02-11T03:59:33.336Z,1.23
2019-02-11T04:02:02.549Z,1.13
2019-02-11T04:04:31.763Z,1.30
2019-02-11T04:07:00.938Z,1.13
2019-02-11T04:09:29.852Z,2.00
2019-02-11T04:11:59.056Z,1.27
2019-02-11T04:14:28.045Z,1.13
2019-02-11T04:16:57.031Z,0.87
2019-02-11T04:19:25.956Z,1.10
2019-02-11T04:22:05.471Z,1.23
2019-02-11T04:24:34.645Z,1.20
2019-02-11T04:27:03.550Z,1.00
2019-02-11T04:29:32.559Z,1.27
2019-02-11T04:32:01.507Z,1.03
2019-02-11T04:34:30.446Z,1.23
2019-02-11T04:36:59.645Z,1.47
2019-02-11T04:39:28.830Z,1.30
2019-02-11T04:41:58.089Z,1.20
2019-02-11T04:44:33.793Z,0.87
2019-02-11T04:46:57.868Z,1.40
2019-02-11T04:49:27.042Z,1.13
2019-02-11T04:51:56.265Z,1.10
2019-02-11T04:54:25.473Z,1.57
2019-02-11T04:56:54.672Z,1.30
2019-02-11T04:59:23.867Z,1.40
2019-02-11T05:01:53.055Z,1.60
2019-02-11T05:04:22.249Z,2.80
2019-02-11T05:06:51.450Z,1.30
2019-02-11T05:09:20.624Z,1.17
2019-02-11T05:11:50.272Z,2.27
2019-02-11T05:14:19.446Z,1.70
2019-02-11T05:16:48.711Z,0.90
2019-02-11T05:19:17.925Z,1.20
2019-02-11T05:21:46.816Z,1.10
2019-02-11T05:24:15.753Z,1.00
2019-02-11T05:26:44.917Z,1.50
2019-02-11T05:29:14.401Z,2.10
2019-02-11T05:31:43.328Z,2.10
2019-02-11T05:34:12.311Z,2.37
2019-02-11T05:36:41.571Z,2.00
2019-02-11T05:39:10.758Z,1.87
2019-02-11T05:41:40.047Z,1.23
2019-02-11T05:44:08.975Z,1.73
2019-02-11T05:46:38.229Z,1.80
2019-02-11T05:49:07.457Z,1.70
2019-02-11T05:51:36.346Z,1.47
2019-02-11T05:54:05.530Z,1.50
2019-02-11T05:56:34.790Z,2.10
2019-02-11T05:59:03.689Z,1.77
2019-02-11T06:01:32.597Z,1.50
2019-02-11T06:04:01.912Z,1.77
2019-02-11T06:06:31.078Z,2.30
2019-02-11T06:09:00.433Z,2.33
2019-02-11T06:11:30.048Z,2.87
2019-02-11T06:14:00.266Z,3.40
2019-02-11T06:16:29.748Z,1.60
2019-02-11T06:18:58.672Z,2.63
2019-02-11T06:21:27.880Z,2.53
2019-02-11T06:23:57.403Z,3.10
2019-02-11T06:26:27.012Z,2.80
2019-02-11T06:28:55.964Z,3.57
2019-02-11T06:31:25.161Z,3.10
2019-02-11T06:33:54.350Z,3.47
2019-02-11T06:36:23.949Z,3.50
2019-02-11T06:38:52.858Z,3.43
2019-02-11T06:41:22.092Z,4.13
2019-02-11T06:43:51.725Z,4.10
2019-02-11T06:46:20.933Z,3.13
2019-02-11T06:48:49.930Z,3.50
2019-02-11T06:51:18.896Z,4.13
2019-02-11T06:53:47.819Z,3.80
2019-02-11T06:56:16.847Z,4.97
2019-02-11T06:58:46.089Z,2.73
2019-02-11T07:01:15.024Z,4.03
2019-02-11T07:03:44.580Z,3.50
2019-02-11T07:06:13.564Z,3.60
2019-02-11T07:08:42.615Z,3.80
2019-02-11T07:11:12.232Z,4.70
2019-02-11T07:13:41.250Z,4.00
2019-02-11T07:16:10.205Z,3.50
2019-02-11T07:18:39.608Z,3.50
2019-02-11T07:21:08.829Z,3.80
2019-02-11T07:23:37.833Z,3.80
2019-02-11T07:26:07.103Z,3.70
2019-02-11T07:28:36.044Z,3.23
2019-02-11T07:31:05.017Z,3.97
2019-02-11T07:33:34.290Z,3.57
2019-02-11T07:36:03.558Z,3.90
2019-02-11T07:38:32.560Z,5.20
2019-02-11T07:41:01.856Z,4.40
2019-02-11T07:43:55.803Z,4.63
2019-02-11T07:46:29.326Z,4.60
2019-02-11T07:48:58.685Z,4.60
2019-02-11T07:51:27.986Z,4.60
2019-02-11T07:53:57.488Z,5.20
2019-02-11T07:56:27.139Z,4.40
2019-02-11T07:58:58.214Z,3.37
2019-02-11T08:01:27.848Z,5.07
2019-02-11T08:03:57.071Z,5.30
2019-02-11T08:06:26.312Z,4.87
2019-02-11T08:08:57.603Z,5.33
2019-02-11T08:11:27.221Z,4.20
2019-02-11T08:13:56.296Z,4.50
2019-02-11T08:16:25.991Z,3.90
2019-02-11T08:18:55.080Z,4.40
2019-02-11T08:21:24.691Z,3.80
2019-02-11T08:23:54.288Z,3.60
2019-02-11T08:26:23.661Z,4.70
2019-02-11T08:28:52.656Z,3.33
2019-02-11T08:31:22.010Z,4.80
2019-02-11T08:33:51.364Z,4.83
2019-02-11T08:36:20.984Z,5.10
2019-02-11T08:38:50.270Z,4.80
2019-02-11T08:41:19.249Z,4.47
2019-02-11T08:43:48.344Z,5.07
2019-02-11T08:46:17.718Z,3.57
2019-02-11T08:48:46.721Z,4.47
2019-02-11T08:51:16.153Z,4.60
2019-02-11T08:53:45.184Z,4.77
2019-02-11T08:56:14.536Z,5.37
2019-02-11T08:58:43.846Z,4.57
2019-02-11T09:01:13.246Z,4.40
2019-02-11T09:03:42.576Z,5.37
2019-02-11T09:06:11.689Z,6.57
2019-02-11T09:08:40.798Z,4.93
2019-02-11T09:11:10.158Z,6.10
2019-02-11T09:13:39.410Z,5.20
2019-02-11T09:16:08.361Z,4.57
2019-02-11T09:18:37.479Z,5.70
2019-02-11T09:21:06.949Z,5.03
2019-02-11T09:23:35.928Z,5.70
2019-02-11T09:26:04.955Z,5.73
2019-02-11T09:28:33.901Z,4.90
2019-02-11T09:31:03.183Z,4.77
2019-02-11T09:33:32.222Z,5.27
2019-02-11T09:36:03.315Z,5.63
2019-02-11T09:38:32.505Z,7.13
2019-02-11T09:41:02.424Z,6.90
2019-02-11T09:43:31.554Z,8.13
2019-02-11T09:46:04.019Z,6.50
2019-02-11T09:48:31.341Z,6.07
2019-02-11T09:51:00.800Z,6.80
2019-02-11T09:53:30.046Z,5.50
2019-02-11T09:55:59.168Z,5.37
2019-02-11T09:58:28.475Z,6.53
2019-02-11T10:00:57.568Z,8.33
2019-02-11T10:03:26.817Z,7.30
2019-02-11T10:05:55.733Z,5.33
2019-02-11T10:08:24.697Z,6.20
2019-02-11T10:10:54.219Z,5.57
2019-02-11T10:13:23.483Z,6.77
2019-02-11T10:15:52.834Z,5.43
2019-02-11T10:18:21.769Z,6.70
2019-02-11T10:20:51.148Z,6.03
2019-02-11T10:23:20.368Z,5.47
2019-02-11T10:25:49.682Z,5.50
2019-02-11T10:28:18.624Z,6.00
2019-02-11T10:30:48.140Z,6.10
2019-02-11T10:33:17.134Z,6.37
2019-02-11T10:35:46.356Z,6.00
2019-02-11T10:38:15.293Z,6.00
2019-02-11T10:40:44.385Z,6.40
2019-02-11T10:43:13.322Z,6.50
2019-02-11T10:45:42.949Z,5.57
2019-02-11T10:48:11.982Z,5.60
2019-02-11T10:50:40.968Z,5.57
2019-02-11T10:53:10.957Z,5.50
2019-02-11T10:55:39.672Z,6.20
2019-02-11T10:58:08.983Z,5.47
2019-02-11T11:00:38.883Z,5.97
2019-02-11T11:03:08.222Z,5.50
2019-02-11T11:05:37.597Z,5.80
2019-02-11T11:08:06.583Z,4.33
2019-02-11T11:10:36.157Z,5.17
2019-02-11T11:13:05.171Z,4.93
2019-02-11T11:15:34.770Z,4.47
2019-02-11T11:18:03.877Z,6.10
2019-02-11T11:20:33.149Z,5.17
2019-02-11T11:23:02.559Z,3.83
2019-02-11T11:25:31.766Z,4.80
2019-02-11T11:28:01.045Z,4.47
2019-02-11T11:30:30.734Z,4.17
2019-02-11T11:33:00.108Z,5.63
2019-02-11T11:35:29.455Z,4.90
2019-02-11T11:37:58.489Z,5.10
2019-02-11T11:40:27.929Z,4.70
2019-02-11T11:42:56.867Z,4.80
2019-02-11T11:45:27.836Z,4.90
2019-02-11T11:47:56.873Z,6.10
2019-02-11T11:50:26.062Z,5.77
2019-02-11T11:52:54.960Z,3.93
2019-02-11T11:55:24.638Z,3.90
2019-02-11T11:57:53.911Z,4.53
2019-02-11T12:00:23.882Z,4.93
2019-02-11T12:03:01.668Z,4.60
2019-02-11T12:05:23.663Z,4.87
2019-02-11T12:07:52.677Z,4.80
2019-02-11T12:10:21.676Z,4.90
2019-02-11T12:12:50.678Z,5.73
2019-02-11T12:15:21.007Z,4.97
2019-02-11T12:17:50.134Z,5.37
2019-02-11T12:20:19.159Z,4.87
2019-02-11T12:22:48.129Z,6.17
2019-02-11T12:25:17.124Z,9.90
2019-02-11T12:27:46.097Z,6.40
2019-02-11T12:30:16.332Z,5.93
2019-02-11T12:32:45.384Z,6.10
2019-02-11T12:35:14.393Z,5.60
2019-02-11T12:37:43.533Z,5.63
2019-02-11T12:40:12.867Z,5.80
2019-02-11T12:42:41.830Z,4.77
2019-02-11T12:45:12.087Z,4.70
2019-02-11T12:47:41.004Z,5.30
2019-02-11T12:50:10.325Z,5.37
2019-02-11T12:52:39.292Z,6.27
2019-02-11T12:55:09.010Z,5.37
2019-02-11T12:57:38.131Z,5.53
2019-02-11T13:00:09.237Z,4.63
2019-02-11T13:02:38.219Z,4.37
2019-02-11T13:05:07.536Z,6.33
2019-02-11T13:07:36.770Z,5.67
2019-02-11T13:10:19.319Z,5.47
2019-02-11T13:12:47.977Z,5.20
2019-02-11T13:15:41.370Z,4.80
2019-02-11T13:17:47.691Z,5.43
2019-02-11T13:20:16.770Z,5.37
2019-02-11T13:22:45.822Z,5.43
2019-02-11T13:25:20.742Z,4.77
2019-02-11T13:27:50.193Z,4.10
2019-02-11T13:30:19.631Z,4.37
2019-02-11T13:32:48.606Z,4.57
2019-02-11T13:35:17.734Z,4.70
2019-02-11T13:37:46.868Z,4.37
2019-02-11T13:40:16.740Z,5.20
2019-02-11T13:42:46.618Z,4.57
2019-02-11T13:45:16.538Z,4.97
2019-02-11T13:47:55.124Z,4.67
2019-02-11T13:50:18.491Z,3.67
2019-02-11T13:52:47.755Z,4.80
2019-02-11T13:55:17.184Z,4.80
2019-02-11T13:57:51.622Z,5.20
2019-02-11T14:00:26.341Z,3.93
2019-02-11T14:02:57.338Z,4.97
2019-02-11T14:05:27.697Z,3.07
2019-02-11T14:07:58.784Z,3.47
2019-02-11T14:10:28.738Z,4.00
2019-02-11T14:12:58.551Z,4.80
2019-02-11T14:15:27.857Z,3.97
2019-02-11T14:18:12.113Z,3.40
2019-02-11T14:20:36.199Z,4.73
2019-02-11T14:23:05.675Z,4.13
2019-02-11T14:25:46.564Z,3.00
2019-02-11T14:28:16.871Z,2.77
2019-02-11T14:30:50.015Z,3.53
2019-02-11T14:33:24.192Z,3.10
2019-02-11T14:35:54.546Z,3.40
2019-02-11T14:38:25.154Z,3.13
2019-02-11T14:40:56.667Z,2.33
2019-02-11T14:43:25.965Z,2.70
2019-02-11T14:45:55.162Z,3.57
2019-02-11T14:48:28.569Z,2.60
2019-02-11T14:51:00.649Z,2.30
2019-02-11T14:53:30.994Z,2.60
2019-02-11T14:56:00.755Z,3.50
2019-02-11T14:58:31.771Z,3.90
2019-02-11T15:01:02.628Z,5.20
2019-02-11T15:03:32.845Z,4.50
2019-02-11T15:06:03.163Z,2.47
2019-02-11T15:08:33.248Z,2.60
2019-02-11T15:11:04.110Z,2.97
2019-02-11T15:14:12.957Z,3.57
2019-02-11T15:16:43.825Z,3.70
2019-02-11T15:19:13.819Z,2.70
2019-02-11T15:21:47.018Z,2.40
2019-02-11T15:24:18.775Z,2.70
2019-02-11T15:26:50.383Z,2.93
2019-02-11T15:29:21.713Z,3.20
2019-02-11T15:31:54.773Z,2.77
2019-02-11T15:34:25.146Z,2.90
2019-02-11T15:36:56.771Z,3.20
2019-02-11T15:39:38.232Z,3.90
2019-02-11T15:42:09.978Z,2.40
2019-02-11T15:44:42.232Z,3.73
2019-02-11T15:47:11.822Z,2.83
2019-02-11T15:49:43.293Z,3.00
2019-02-11T15:52:12.624Z,3.27
2019-02-11T15:54:43.962Z,2.00
2019-02-11T15:57:14.399Z,2.43
2019-02-11T15:59:45.240Z,2.83
2019-02-11T16:02:36.974Z,2.43
2019-02-11T16:05:07.170Z,2.40
2019-02-11T16:07:38.006Z,2.80
2019-02-11T16:10:08.666Z,2.83
2019-02-11T16:12:38.257Z,2.80
2019-02-11T16:15:09.152Z,2.00
2019-02-11T16:17:40.963Z,2.10
2019-02-11T16:20:14.391Z,3.17
2019-02-11T16:22:43.542Z,2.37
2019-02-11T16:25:13.925Z,2.80
2019-02-11T16:27:44.559Z,2.57
2019-02-11T16:30:17.970Z,2.50
2019-02-11T16:32:50.361Z,2.77
2019-02-11T16:35:19.865Z,2.70
2019-02-11T16:37:53.630Z,2.97
2019-02-11T16:40:24.202Z,2.90
2019-02-11T16:42:54.378Z,2.47
2019-02-11T16:45:24.660Z,2.80
2019-02-11T16:47:57.251Z,2.33
2019-02-11T16:50:52.153Z,2.30
2019-02-11T16:53:24.873Z,2.13
2019-02-11T16:55:56.519Z,2.40
2019-02-11T16:58:29.825Z,2.40
2019-02-11T17:01:07.626Z,2.33
2019-02-11T17:06:37.179Z,3.30
2019-02-11T17:09:09.673Z,2.60
2019-02-11T17:11:40.702Z,3.53
2019-02-11T17:14:15.751Z,2.73
2019-02-11T17:16:47.434Z,4.17
2019-02-11T17:19:18.876Z,2.27
2019-02-11T17:21:51.974Z,3.47
2019-02-11T17:24:23.253Z,2.40
2019-02-11T17:26:54.086Z,2.27
2019-02-11T17:29:24.512Z,2.50
2019-02-11T17:31:55.470Z,2.40
2019-02-11T17:34:25.475Z,3.13
2019-02-11T17:36:55.628Z,2.47
2019-02-11T17:39:25.952Z,22.47
2019-02-11T17:41:56.192Z,2.80
2019-02-11T17:44:26.694Z,2.53
2019-02-11T17:46:57.539Z,2.37
2019-02-11T17:49:28.841Z,3.33
2019-02-11T17:51:59.435Z,2.90
2019-02-11T17:54:29.498Z,3.00
2019-02-11T17:56:59.630Z,3.37
2019-02-11T17:59:30.375Z,2.27
2019-02-11T18:02:00.707Z,2.00
2019-02-11T18:04:31.631Z,3.37
2019-02-11T18:07:01.792Z,2.07
2019-02-11T18:09:32.228Z,2.60
2019-02-11T18:12:02.400Z,2.77
2019-02-11T18:14:32.114Z,2.87
2019-02-11T18:17:02.816Z,4.60
2019-02-11T18:19:37.141Z,3.20
2019-02-11T18:22:07.917Z,3.30
2019-02-11T18:24:37.911Z,2.63
2019-02-11T18:27:08.017Z,2.23
2019-02-11T18:29:38.366Z,2.90
2019-02-11T18:32:08.499Z,2.10
2019-02-11T18:34:38.841Z,2.80
2019-02-11T18:37:09.464Z,3.10
2019-02-11T18:39:39.914Z,2.20
2019-02-11T18:42:10.966Z,3.37
2019-02-11T18:44:43.927Z,3.10
2019-02-11T18:47:14.427Z,2.93
2019-02-11T18:49:44.957Z,3.20
2019-02-11T18:52:15.451Z,2.73
2019-02-11T18:54:45.708Z,3.27
2019-02-11T18:57:16.497Z,2.53
2019-02-11T18:59:46.579Z,2.47
2019-02-11T19:02:16.583Z,3.00
2019-02-11T19:04:46.839Z,3.17
2019-02-11T19:07:17.527Z,2.17
